sensor_id;sensor_type;location;lat;lon;timestamp;temperature;humidity
216;HTU21D;70668;48.81286795;9.14184224;2023-11-18T00:01:35;5.85;103.00
216;HTU21D;70668;48.81286795;9.14184224;2023-11-18T00:04:04;5.96;103.56
216;HTU21D;70668;48.81286795;9.14184224;2023-11-18T00:06:41;5.91;103.21
216;HTU21D;70668;48.81286795;9.14184224;2023-11-18T00:09:09;5.96;104.21
216;HTU21D;70668;48.81286795;9.14184224;2023-11-18T00:11:38;5.99;104.24
216;HTU21D;70668;48.81286795;9.14184224;2023-11-18T00:14:10;6.06;103.21
216;HTU21D;70668;48.81286795;9.14184224;2023-11-18T00:16:38;5.89;102.79
216;HTU21D;70668;48.81286795;9.14184224;2023-11-18T00:19:07;5.95;104.28
216;HTU21D;70668;48.81286795;9.14184224;2023-11-18T00:21:35;5.84;103.10
216;HTU21D;70668;48.81286795;9.14184224;2023-11-18T00:24:05;5.89;104.02
216;HTU21D;70668;48.81286795;9.14184224;2023-11-18T00:26:33;5.94;102.88
216;HTU21D;70668;48.81286795;9.14184224;2023-11-18T00:29:03;6.07;103.23
216;HTU21D;70668;48.81286795;9.14184224;2023-11-18T00:31:34;6.02;103.62
216;HTU21D;70668;48.81286795;9.14184224;2023-11-18T00:34:03;6.11;103.02
216;HTU21D;70668;48.81286795;9.14184224;2023-11-18T00:36:31;5.86;103.24
216;HTU21D;70668;48.81286795;9.14184224;2023-11-18T00:39:00;5.91;104.05
216;HTU21D;70668;48.81286795;9.14184224;2023-11-18T00:41:29;5.99;103.54
216;HTU21D;70668;48.81286795;9.14184224;2023-11-18T00:43:58;5.82;104.68
216;HTU21D;70668;48.81286795;9.14184224;2023-11-18T00:46:26;5.75;104.61
216;HTU21D;70668;48.81286795;9.14184224;2023-11-18T00:48:58;5.92;104.15
216;HTU21D;70668;48.81286795;9.14184224;2023-11-18T00:51:27;5.93;103.79
216;HTU21D;70668;48.81286795;9.14184224;2023-11-18T00:53:55;5.99;103.51
216;HTU21D;70668;48.81286795;9.14184224;2023-11-18T00:56:26;5.96;102.41
216;HTU21D;70668;48.81286795;9.14184224;2023-11-18T00:58:54;5.92;103.36
216;HTU21D;70668;48.81286795;9.14184224;2023-11-18T01:01:23;6.09;103.48
216;HTU21D;70668;48.81286795;9.14184224;2023-11-18T01:03:51;5.93;103.41
216;HTU21D;70668;48.81286795;9.14184224;2023-11-18T01:06:23;6.24;102.18
216;HTU21D;70668;48.81286795;9.14184224;2023-11-18T01:08:52;5.86;103.94
216;HTU21D;70668;48.81286795;9.14184224;2023-11-18T01:11:21;6.12;102.95
216;HTU21D;70668;48.81286795;9.14184224;2023-11-18T01:13:50;6.12;103.28
216;HTU21D;70668;48.81286795;9.14184224;2023-11-18T01:16:20;6.30;102.21
216;HTU21D;70668;48.81286795;9.14184224;2023-11-18T01:18:50;6.14;102.24
216;HTU21D;70668;48.81286795;9.14184224;2023-11-18T01:21:20;5.97;103.70
216;HTU21D;70668;48.81286795;9.14184224;2023-11-18T01:23:51;6.20;103.50
216;HTU21D;70668;48.81286795;9.14184224;2023-11-18T01:26:20;6.10;103.05
216;HTU21D;70668;48.81286795;9.14184224;2023-11-18T01:28:48;6.19;103.25
216;HTU21D;70668;48.81286795;9.14184224;2023-11-18T01:31:17;5.99;104.35
216;HTU21D;70668;48.81286795;9.14184224;2023-11-18T01:33:45;6.01;104.05
216;HTU21D;70668;48.81286795;9.14184224;2023-11-18T01:36:15;6.06;103.50
216;HTU21D;70668;48.81286795;9.14184224;2023-11-18T01:38:44;6.02;103.63
216;HTU21D;70668;48.81286795;9.14184224;2023-11-18T01:41:15;5.95;104.56
216;HTU21D;70668;48.81286795;9.14184224;2023-11-18T01:43:45;6.01;103.76
216;HTU21D;70668;48.81286795;9.14184224;2023-11-18T01:46:16;6.01;102.61
216;HTU21D;70668;48.81286795;9.14184224;2023-11-18T01:48:49;6.05;104.39
216;HTU21D;70668;48.81286795;9.14184224;2023-11-18T01:51:17;6.12;103.62
216;HTU21D;70668;48.81286795;9.14184224;2023-11-18T01:53:49;6.14;103.83
216;HTU21D;70668;48.81286795;9.14184224;2023-11-18T01:56:21;6.13;103.48
216;HTU21D;70668;48.81286795;9.14184224;2023-11-18T01:58:51;6.14;103.89
216;HTU21D;70668;48.81286795;9.14184224;2023-11-18T02:01:21;6.15;104.99
216;HTU21D;70668;48.81286795;9.14184224;2023-11-18T02:03:49;6.19;105.08
216;HTU21D;70668;48.81286795;9.14184224;2023-11-18T02:06:19;6.04;104.40
216;HTU21D;70668;48.81286795;9.14184224;2023-11-18T02:08:47;5.89;104.66
216;HTU21D;70668;48.81286795;9.14184224;2023-11-18T02:11:26;5.96;105.26
216;HTU21D;70668;48.81286795;9.14184224;2023-11-18T02:13:58;6.25;103.44
216;HTU21D;70668;48.81286795;9.14184224;2023-11-18T02:16:29;5.98;105.08
216;HTU21D;70668;48.81286795;9.14184224;2023-11-18T02:19:00;6.01;105.24
216;HTU21D;70668;48.81286795;9.14184224;2023-11-18T02:21:32;6.08;101.99
216;HTU21D;70668;48.81286795;9.14184224;2023-11-18T02:24:01;6.06;102.54
216;HTU21D;70668;48.81286795;9.14184224;2023-11-18T02:26:32;6.19;103.85
216;HTU21D;70668;48.81286795;9.14184224;2023-11-18T02:29:01;6.21;103.73
216;HTU21D;70668;48.81286795;9.14184224;2023-11-18T02:31:33;6.04;103.54
216;HTU21D;70668;48.81286795;9.14184224;2023-11-18T02:34:08;6.02;105.16
216;HTU21D;70668;48.81286795;9.14184224;2023-11-18T02:36:41;5.86;105.62
216;HTU21D;70668;48.81286795;9.14184224;2023-11-18T02:39:17;5.93;105.84
216;HTU21D;70668;48.81286795;9.14184224;2023-11-18T02:41:52;6.23;104.44
216;HTU21D;70668;48.81286795;9.14184224;2023-11-18T02:44:23;6.05;104.17
216;HTU21D;70668;48.81286795;9.14184224;2023-11-18T02:46:52;5.96;104.18
216;HTU21D;70668;48.81286795;9.14184224;2023-11-18T02:49:21;5.72;105.17
216;HTU21D;70668;48.81286795;9.14184224;2023-11-18T02:51:49;5.77;104.50
216;HTU21D;70668;48.81286795;9.14184224;2023-11-18T02:54:18;5.96;104.63
216;HTU21D;70668;48.81286795;9.14184224;2023-11-18T02:56:47;5.82;104.12
216;HTU21D;70668;48.81286795;9.14184224;2023-11-18T02:59:18;5.62;104.32
216;HTU21D;70668;48.81286795;9.14184224;2023-11-18T03:01:46;5.47;104.72
216;HTU21D;70668;48.81286795;9.14184224;2023-11-18T03:04:15;5.43;104.76
216;HTU21D;70668;48.81286795;9.14184224;2023-11-18T03:06:45;5.31;105.11
216;HTU21D;70668;48.81286795;9.14184224;2023-11-18T03:09:13;5.25;104.26
216;HTU21D;70668;48.81286795;9.14184224;2023-11-18T03:11:42;5.33;104.88
216;HTU21D;70668;48.81286795;9.14184224;2023-11-18T03:14:10;5.35;104.63
216;HTU21D;70668;48.81286795;9.14184224;2023-11-18T03:16:42;5.41;105.24
216;HTU21D;70668;48.81286795;9.14184224;2023-11-18T03:19:10;5.45;104.84
216;HTU21D;70668;48.81286795;9.14184224;2023-11-18T03:21:39;5.08;105.21
216;HTU21D;70668;48.81286795;9.14184224;2023-11-18T03:24:09;5.13;105.78
216;HTU21D;70668;48.81286795;9.14184224;2023-11-18T03:26:37;4.97;105.92
216;HTU21D;70668;48.81286795;9.14184224;2023-11-18T03:29:06;4.92;105.76
216;HTU21D;70668;48.81286795;9.14184224;2023-11-18T03:31:36;5.04;105.46
216;HTU21D;70668;48.81286795;9.14184224;2023-11-18T03:34:07;4.93;105.46
216;HTU21D;70668;48.81286795;9.14184224;2023-11-18T03:36:36;4.86;105.80
216;HTU21D;70668;48.81286795;9.14184224;2023-11-18T03:39:04;5.03;105.31
216;HTU21D;70668;48.81286795;9.14184224;2023-11-18T03:41:33;4.90;106.24
216;HTU21D;70668;48.81286795;9.14184224;2023-11-18T03:44:04;4.86;105.72
216;HTU21D;70668;48.81286795;9.14184224;2023-11-18T03:46:32;4.78;106.18
216;HTU21D;70668;48.81286795;9.14184224;2023-11-18T03:49:01;4.83;106.05
216;HTU21D;70668;48.81286795;9.14184224;2023-11-18T03:51:32;4.92;106.90
216;HTU21D;70668;48.81286795;9.14184224;2023-11-18T03:54:00;5.13;105.96
216;HTU21D;70668;48.81286795;9.14184224;2023-11-18T03:56:29;5.16;106.69
216;HTU21D;70668;48.81286795;9.14184224;2023-11-18T03:58:58;5.16;106.40
216;HTU21D;70668;48.81286795;9.14184224;2023-11-18T04:01:26;4.88;106.46
216;HTU21D;70668;48.81286795;9.14184224;2023-11-18T04:03:55;4.77;107.27
216;HTU21D;70668;48.81286795;9.14184224;2023-11-18T04:06:23;4.94;106.72
216;HTU21D;70668;48.81286795;9.14184224;2023-11-18T04:08:55;4.84;106.03
216;HTU21D;70668;48.81286795;9.14184224;2023-11-18T04:11:24;4.61;106.17
216;HTU21D;70668;48.81286795;9.14184224;2023-11-18T04:13:52;4.61;106.39
216;HTU21D;70668;48.81286795;9.14184224;2023-11-18T04:16:21;4.53;106.19
216;HTU21D;70668;48.81286795;9.14184224;2023-11-18T04:18:49;4.53;105.90
216;HTU21D;70668;48.81286795;9.14184224;2023-11-18T04:21:18;4.33;105.98
216;HTU21D;70668;48.81286795;9.14184224;2023-11-18T04:23:46;4.31;106.40
216;HTU21D;70668;48.81286795;9.14184224;2023-11-18T04:26:18;4.32;106.37
216;HTU21D;70668;48.81286795;9.14184224;2023-11-18T04:28:46;4.23;106.16
216;HTU21D;70668;48.81286795;9.14184224;2023-11-18T04:31:15;4.39;105.95
216;HTU21D;70668;48.81286795;9.14184224;2023-11-18T04:33:43;4.37;105.84
216;HTU21D;70668;48.81286795;9.14184224;2023-11-18T04:36:12;4.71;106.10
216;HTU21D;70668;48.81286795;9.14184224;2023-11-18T04:38:41;4.19;105.89
216;HTU21D;70668;48.81286795;9.14184224;2023-11-18T04:41:10;4.38;104.88
216;HTU21D;70668;48.81286795;9.14184224;2023-11-18T04:43:41;4.61;105.12
216;HTU21D;70668;48.81286795;9.14184224;2023-11-18T04:46:11;4.46;104.90
216;HTU21D;70668;48.81286795;9.14184224;2023-11-18T04:48:40;4.36;104.81
216;HTU21D;70668;48.81286795;9.14184224;2023-11-18T04:51:09;4.47;103.64
216;HTU21D;70668;48.81286795;9.14184224;2023-11-18T04:53:38;4.39;105.57
216;HTU21D;70668;48.81286795;9.14184224;2023-11-18T04:56:07;4.45;103.48
216;HTU21D;70668;48.81286795;9.14184224;2023-11-18T04:58:37;4.49;102.17
216;HTU21D;70668;48.81286795;9.14184224;2023-11-18T05:01:08;4.09;105.53
216;HTU21D;70668;48.81286795;9.14184224;2023-11-18T05:03:37;3.95;105.96
216;HTU21D;70668;48.81286795;9.14184224;2023-11-18T05:06:06;4.19;103.70
216;HTU21D;70668;48.81286795;9.14184224;2023-11-18T05:08:34;4.17;103.34
216;HTU21D;70668;48.81286795;9.14184224;2023-11-18T05:11:03;4.17;105.11
216;HTU21D;70668;48.81286795;9.14184224;2023-11-18T05:13:32;4.24;105.13
216;HTU21D;70668;48.81286795;9.14184224;2023-11-18T05:16:01;4.66;102.63
216;HTU21D;70668;48.81286795;9.14184224;2023-11-18T05:18:32;4.36;104.47
216;HTU21D;70668;48.81286795;9.14184224;2023-11-18T05:21:03;4.42;103.40
216;HTU21D;70668;48.81286795;9.14184224;2023-11-18T05:23:33;4.21;104.32
216;HTU21D;70668;48.81286795;9.14184224;2023-11-18T05:26:02;4.15;102.91
216;HTU21D;70668;48.81286795;9.14184224;2023-11-18T05:28:32;4.05;103.67
216;HTU21D;70668;48.81286795;9.14184224;2023-11-18T05:31:00;4.16;103.25
216;HTU21D;70668;48.81286795;9.14184224;2023-11-18T05:33:33;3.94;104.50
216;HTU21D;70668;48.81286795;9.14184224;2023-11-18T05:36:03;3.90;105.57
216;HTU21D;70668;48.81286795;9.14184224;2023-11-18T05:38:32;4.00;104.78
216;HTU21D;70668;48.81286795;9.14184224;2023-11-18T05:41:01;3.75;105.02
216;HTU21D;70668;48.81286795;9.14184224;2023-11-18T05:43:32;4.08;103.74
216;HTU21D;70668;48.81286795;9.14184224;2023-11-18T05:46:05;4.17;103.89
216;HTU21D;70668;48.81286795;9.14184224;2023-11-18T05:48:49;3.71;105.17
216;HTU21D;70668;48.81286795;9.14184224;2023-11-18T05:51:22;4.03;103.99
216;HTU21D;70668;48.81286795;9.14184224;2023-11-18T05:53:51;4.21;104.54
216;HTU21D;70668;48.81286795;9.14184224;2023-11-18T05:56:20;4.06;103.39
216;HTU21D;70668;48.81286795;9.14184224;2023-11-18T05:58:50;3.63;105.32
216;HTU21D;70668;48.81286795;9.14184224;2023-11-18T06:01:19;3.93;105.23
216;HTU21D;70668;48.81286795;9.14184224;2023-11-18T06:03:50;4.01;104.37
216;HTU21D;70668;48.81286795;9.14184224;2023-11-18T06:06:19;3.63;105.14
216;HTU21D;70668;48.81286795;9.14184224;2023-11-18T06:08:47;3.70;104.70
216;HTU21D;70668;48.81286795;9.14184224;2023-11-18T06:11:16;3.68;104.24
216;HTU21D;70668;48.81286795;9.14184224;2023-11-18T06:13:46;3.43;105.56
216;HTU21D;70668;48.81286795;9.14184224;2023-11-18T06:16:16;3.42;105.41
216;HTU21D;70668;48.81286795;9.14184224;2023-11-18T06:18:47;3.47;104.73
216;HTU21D;70668;48.81286795;9.14184224;2023-11-18T06:21:19;3.65;105.15
216;HTU21D;70668;48.81286795;9.14184224;2023-11-18T06:23:50;3.40;104.86
216;HTU21D;70668;48.81286795;9.14184224;2023-11-18T06:26:20;3.62;104.60
216;HTU21D;70668;48.81286795;9.14184224;2023-11-18T06:28:50;3.47;104.09
216;HTU21D;70668;48.81286795;9.14184224;2023-11-18T06:31:19;3.61;102.90
216;HTU21D;70668;48.81286795;9.14184224;2023-11-18T06:33:49;3.69;102.20
216;HTU21D;70668;48.81286795;9.14184224;2023-11-18T06:36:21;3.33;104.48
216;HTU21D;70668;48.81286795;9.14184224;2023-11-18T06:38:52;3.67;104.32
216;HTU21D;70668;48.81286795;9.14184224;2023-11-18T06:41:22;3.63;104.87
216;HTU21D;70668;48.81286795;9.14184224;2023-11-18T06:43:59;3.52;105.89
216;HTU21D;70668;48.81286795;9.14184224;2023-11-18T06:46:34;3.52;104.21
216;HTU21D;70668;48.81286795;9.14184224;2023-11-18T06:49:05;3.53;106.14
216;HTU21D;70668;48.81286795;9.14184224;2023-11-18T06:51:39;3.23;106.45
216;HTU21D;70668;48.81286795;9.14184224;2023-11-18T06:54:07;3.53;106.85
216;HTU21D;70668;48.81286795;9.14184224;2023-11-18T06:56:39;3.33;105.89
216;HTU21D;70668;48.81286795;9.14184224;2023-11-18T06:59:09;3.18;104.53
216;HTU21D;70668;48.81286795;9.14184224;2023-11-18T07:01:38;3.57;104.32
216;HTU21D;70668;48.81286795;9.14184224;2023-11-18T07:04:08;3.54;104.49
216;HTU21D;70668;48.81286795;9.14184224;2023-11-18T07:06:39;3.44;104.78
216;HTU21D;70668;48.81286795;9.14184224;2023-11-18T07:09:09;3.72;103.41
216;HTU21D;70668;48.81286795;9.14184224;2023-11-18T07:11:43;3.60;104.56
216;HTU21D;70668;48.81286795;9.14184224;2023-11-18T07:14:12;3.80;103.87
216;HTU21D;70668;48.81286795;9.14184224;2023-11-18T07:16:41;4.22;103.50
216;HTU21D;70668;48.81286795;9.14184224;2023-11-18T07:19:10;4.08;104.40
216;HTU21D;70668;48.81286795;9.14184224;2023-11-18T07:21:48;4.34;102.54
216;HTU21D;70668;48.81286795;9.14184224;2023-11-18T07:24:19;4.33;104.53
216;HTU21D;70668;48.81286795;9.14184224;2023-11-18T07:26:48;4.38;104.62
216;HTU21D;70668;48.81286795;9.14184224;2023-11-18T07:29:17;4.19;105.37
216;HTU21D;70668;48.81286795;9.14184224;2023-11-18T07:31:46;4.28;105.37
216;HTU21D;70668;48.81286795;9.14184224;2023-11-18T07:34:14;4.36;106.27
216;HTU21D;70668;48.81286795;9.14184224;2023-11-18T07:36:43;4.47;105.53
216;HTU21D;70668;48.81286795;9.14184224;2023-11-18T07:39:16;4.50;106.28
216;HTU21D;70668;48.81286795;9.14184224;2023-11-18T07:41:50;4.45;106.21
216;HTU21D;70668;48.81286795;9.14184224;2023-11-18T07:44:19;4.42;106.50
216;HTU21D;70668;48.81286795;9.14184224;2023-11-18T07:46:49;4.54;106.06
216;HTU21D;70668;48.81286795;9.14184224;2023-11-18T07:49:17;4.74;105.81
216;HTU21D;70668;48.81286795;9.14184224;2023-11-18T07:51:50;4.62;106.10
216;HTU21D;70668;48.81286795;9.14184224;2023-11-18T07:54:21;4.94;105.57
216;HTU21D;70668;48.81286795;9.14184224;2023-11-18T07:56:50;5.05;105.23
216;HTU21D;70668;48.81286795;9.14184224;2023-11-18T07:59:19;5.02;104.27
216;HTU21D;70668;48.81286795;9.14184224;2023-11-18T08:01:49;5.33;104.01
216;HTU21D;70668;48.81286795;9.14184224;2023-11-18T08:04:18;5.24;103.83
216;HTU21D;70668;48.81286795;9.14184224;2023-11-18T08:06:48;5.46;103.76
216;HTU21D;70668;48.81286795;9.14184224;2023-11-18T08:09:17;5.41;102.75
216;HTU21D;70668;48.81286795;9.14184224;2023-11-18T08:11:51;5.83;103.43
216;HTU21D;70668;48.81286795;9.14184224;2023-11-18T08:14:21;6.37;99.83
216;HTU21D;70668;48.81286795;9.14184224;2023-11-18T08:16:49;5.87;101.99
216;HTU21D;70668;48.81286795;9.14184224;2023-11-18T08:19:18;5.93;102.25
216;HTU21D;70668;48.81286795;9.14184224;2023-11-18T08:21:48;6.10;100.23
216;HTU21D;70668;48.81286795;9.14184224;2023-11-18T08:24:17;6.13;99.74
216;HTU21D;70668;48.81286795;9.14184224;2023-11-18T08:26:47;6.13;98.94
216;HTU21D;70668;48.81286795;9.14184224;2023-11-18T08:29:18;5.99;99.74
216;HTU21D;70668;48.81286795;9.14184224;2023-11-18T08:31:46;6.12;98.55
216;HTU21D;70668;48.81286795;9.14184224;2023-11-18T08:34:15;6.20;98.79
216;HTU21D;70668;48.81286795;9.14184224;2023-11-18T08:36:44;6.26;98.91
216;HTU21D;70668;48.81286795;9.14184224;2023-11-18T08:39:12;6.38;98.02
216;HTU21D;70668;48.81286795;9.14184224;2023-11-18T08:41:42;6.42;98.68
216;HTU21D;70668;48.81286795;9.14184224;2023-11-18T08:44:11;6.52;98.83
216;HTU21D;70668;48.81286795;9.14184224;2023-11-18T08:46:43;6.23;100.23
216;HTU21D;70668;48.81286795;9.14184224;2023-11-18T08:49:12;6.42;100.99
216;HTU21D;70668;48.81286795;9.14184224;2023-11-18T08:51:41;6.31;99.77
216;HTU21D;70668;48.81286795;9.14184224;2023-11-18T08:54:12;6.54;101.11
216;HTU21D;70668;48.81286795;9.14184224;2023-11-18T08:56:51;6.60;100.56
216;HTU21D;70668;48.81286795;9.14184224;2023-11-18T08:59:18;6.78;100.50
216;HTU21D;70668;48.81286795;9.14184224;2023-11-18T09:01:54;7.08;98.40
216;HTU21D;70668;48.81286795;9.14184224;2023-11-18T09:04:24;7.15;96.51
216;HTU21D;70668;48.81286795;9.14184224;2023-11-18T09:06:53;7.12;98.84
216;HTU21D;70668;48.81286795;9.14184224;2023-11-18T09:09:25;7.12;99.42
216;HTU21D;70668;48.81286795;9.14184224;2023-11-18T09:11:54;7.20;98.30
216;HTU21D;70668;48.81286795;9.14184224;2023-11-18T09:14:24;6.89;96.49
216;HTU21D;70668;48.81286795;9.14184224;2023-11-18T09:16:56;7.33;96.58
216;HTU21D;70668;48.81286795;9.14184224;2023-11-18T09:19:24;7.43;95.78
216;HTU21D;70668;48.81286795;9.14184224;2023-11-18T09:21:53;7.28;94.91
216;HTU21D;70668;48.81286795;9.14184224;2023-11-18T09:24:21;7.54;94.59
216;HTU21D;70668;48.81286795;9.14184224;2023-11-18T09:26:50;7.34;96.20
216;HTU21D;70668;48.81286795;9.14184224;2023-11-18T09:29:20;7.34;96.34
216;HTU21D;70668;48.81286795;9.14184224;2023-11-18T09:31:50;7.54;95.90
216;HTU21D;70668;48.81286795;9.14184224;2023-11-18T09:34:22;7.75;95.94
216;HTU21D;70668;48.81286795;9.14184224;2023-11-18T09:36:58;7.69;97.20
216;HTU21D;70668;48.81286795;9.14184224;2023-11-18T09:39:27;7.78;96.05
216;HTU21D;70668;48.81286795;9.14184224;2023-11-18T09:42:05;7.88;96.31
216;HTU21D;70668;48.81286795;9.14184224;2023-11-18T09:44:36;7.88;96.42
216;HTU21D;70668;48.81286795;9.14184224;2023-11-18T09:47:08;7.84;96.34
216;HTU21D;70668;48.81286795;9.14184224;2023-11-18T09:49:45;7.60;94.72
216;HTU21D;70668;48.81286795;9.14184224;2023-11-18T09:52:17;7.60;95.64
216;HTU21D;70668;48.81286795;9.14184224;2023-11-18T09:54:54;7.76;97.27
216;HTU21D;70668;48.81286795;9.14184224;2023-11-18T09:57:31;7.88;96.45
216;HTU21D;70668;48.81286795;9.14184224;2023-11-18T10:00:04;7.96;94.58
216;HTU21D;70668;48.81286795;9.14184224;2023-11-18T10:02:46;8.19;92.79
216;HTU21D;70668;48.81286795;9.14184224;2023-11-18T10:05:19;8.03;94.56
216;HTU21D;70668;48.81286795;9.14184224;2023-11-18T10:07:52;7.73;94.04
216;HTU21D;70668;48.81286795;9.14184224;2023-11-18T10:10:23;7.83;93.22
216;HTU21D;70668;48.81286795;9.14184224;2023-11-18T10:13:02;7.98;92.60
216;HTU21D;70668;48.81286795;9.14184224;2023-11-18T10:15:34;7.92;92.43
216;HTU21D;70668;48.81286795;9.14184224;2023-11-18T10:18:05;8.22;92.30
216;HTU21D;70668;48.81286795;9.14184224;2023-11-18T10:20:50;8.06;92.27
216;HTU21D;70668;48.81286795;9.14184224;2023-11-18T10:23:18;7.97;91.43
216;HTU21D;70668;48.81286795;9.14184224;2023-11-18T10:25:48;8.17;93.55
216;HTU21D;70668;48.81286795;9.14184224;2023-11-18T10:28:21;8.16;92.94
216;HTU21D;70668;48.81286795;9.14184224;2023-11-18T10:30:53;8.35;91.33
216;HTU21D;70668;48.81286795;9.14184224;2023-11-18T10:33:24;8.39;91.27
216;HTU21D;70668;48.81286795;9.14184224;2023-11-18T10:35:59;8.15;89.41
216;HTU21D;70668;48.81286795;9.14184224;2023-11-18T10:38:29;8.17;91.01
216;HTU21D;70668;48.81286795;9.14184224;2023-11-18T10:40:59;8.23;91.86
216;HTU21D;70668;48.81286795;9.14184224;2023-11-18T10:43:29;8.30;87.91
216;HTU21D;70668;48.81286795;9.14184224;2023-11-18T10:46:05;8.48;90.37
216;HTU21D;70668;48.81286795;9.14184224;2023-11-18T10:48:40;8.62;91.42
216;HTU21D;70668;48.81286795;9.14184224;2023-11-18T10:51:14;8.57;89.57
216;HTU21D;70668;48.81286795;9.14184224;2023-11-18T10:53:47;8.66;90.08
216;HTU21D;70668;48.81286795;9.14184224;2023-11-18T10:56:24;8.76;90.51
216;HTU21D;70668;48.81286795;9.14184224;2023-11-18T10:58:52;8.65;88.68
216;HTU21D;70668;48.81286795;9.14184224;2023-11-18T11:01:28;8.41;89.47
216;HTU21D;70668;48.81286795;9.14184224;2023-11-18T11:03:57;8.35;89.45
216;HTU21D;70668;48.81286795;9.14184224;2023-11-18T11:06:33;8.32;90.16
216;HTU21D;70668;48.81286795;9.14184224;2023-11-18T11:09:02;8.48;90.70
216;HTU21D;70668;48.81286795;9.14184224;2023-11-18T11:11:45;8.63;91.60
216;HTU21D;70668;48.81286795;9.14184224;2023-11-18T11:14:15;8.76;90.34
216;HTU21D;70668;48.81286795;9.14184224;2023-11-18T11:16:47;8.74;89.60
216;HTU21D;70668;48.81286795;9.14184224;2023-11-18T11:19:24;8.85;89.33
216;HTU21D;70668;48.81286795;9.14184224;2023-11-18T11:22:05;8.37;88.60
216;HTU21D;70668;48.81286795;9.14184224;2023-11-18T11:24:49;8.74;89.82
216;HTU21D;70668;48.81286795;9.14184224;2023-11-18T11:27:23;8.50;86.66
216;HTU21D;70668;48.81286795;9.14184224;2023-11-18T11:30:08;8.65;87.93
216;HTU21D;70668;48.81286795;9.14184224;2023-11-18T11:32:45;8.83;87.72
216;HTU21D;70668;48.81286795;9.14184224;2023-11-18T11:35:18;8.67;85.84
216;HTU21D;70668;48.81286795;9.14184224;2023-11-18T11:37:52;8.65;87.09
216;HTU21D;70668;48.81286795;9.14184224;2023-11-18T11:40:28;8.59;88.12
216;HTU21D;70668;48.81286795;9.14184224;2023-11-18T11:42:57;8.82;88.35
216;HTU21D;70668;48.81286795;9.14184224;2023-11-18T11:45:27;8.68;86.34
216;HTU21D;70668;48.81286795;9.14184224;2023-11-18T11:47:57;8.68;88.53
216;HTU21D;70668;48.81286795;9.14184224;2023-11-18T11:50:48;8.81;83.80
216;HTU21D;70668;48.81286795;9.14184224;2023-11-18T11:53:24;8.87;84.46
216;HTU21D;70668;48.81286795;9.14184224;2023-11-18T11:55:55;8.75;79.19
216;HTU21D;70668;48.81286795;9.14184224;2023-11-18T11:58:33;8.97;83.82
216;HTU21D;70668;48.81286795;9.14184224;2023-11-18T12:01:15;9.09;86.04
216;HTU21D;70668;48.81286795;9.14184224;2023-11-18T12:03:49;8.90;86.62
216;HTU21D;70668;48.81286795;9.14184224;2023-11-18T12:06:23;9.04;84.91
216;HTU21D;70668;48.81286795;9.14184224;2023-11-18T12:08:56;8.92;83.87
216;HTU21D;70668;48.81286795;9.14184224;2023-11-18T12:11:25;9.01;87.93
216;HTU21D;70668;48.81286795;9.14184224;2023-11-18T12:14:02;8.78;83.96
216;HTU21D;70668;48.81286795;9.14184224;2023-11-18T12:17:02;9.21;84.13
216;HTU21D;70668;48.81286795;9.14184224;2023-11-18T12:19:37;8.79;82.12
216;HTU21D;70668;48.81286795;9.14184224;2023-11-18T12:22:14;9.07;83.87
216;HTU21D;70668;48.81286795;9.14184224;2023-11-18T12:28:07;8.76;83.89
216;HTU21D;70668;48.81286795;9.14184224;2023-11-18T12:30:39;8.78;84.75
216;HTU21D;70668;48.81286795;9.14184224;2023-11-18T12:33:18;8.87;82.88
216;HTU21D;70668;48.81286795;9.14184224;2023-11-18T12:39:26;8.79;81.11
216;HTU21D;70668;48.81286795;9.14184224;2023-11-18T12:42:04;8.53;80.91
216;HTU21D;70668;48.81286795;9.14184224;2023-11-18T12:44:52;8.39;78.52
216;HTU21D;70668;48.81286795;9.14184224;2023-11-18T12:47:33;8.30;80.96
216;HTU21D;70668;48.81286795;9.14184224;2023-11-18T12:50:08;8.30;81.67
216;HTU21D;70668;48.81286795;9.14184224;2023-11-18T12:52:43;8.28;81.84
216;HTU21D;70668;48.81286795;9.14184224;2023-11-18T12:55:13;8.39;81.20
216;HTU21D;70668;48.81286795;9.14184224;2023-11-18T12:57:46;8.50;84.24
216;HTU21D;70668;48.81286795;9.14184224;2023-11-18T13:00:18;8.45;83.59
216;HTU21D;70668;48.81286795;9.14184224;2023-11-18T13:02:53;8.43;82.70
216;HTU21D;70668;48.81286795;9.14184224;2023-11-18T13:05:23;8.39;83.30
216;HTU21D;70668;48.81286795;9.14184224;2023-11-18T13:07:55;8.37;84.03
216;HTU21D;70668;48.81286795;9.14184224;2023-11-18T13:10:24;8.39;81.80
216;HTU21D;70668;48.81286795;9.14184224;2023-11-18T13:12:53;8.36;80.32
216;HTU21D;70668;48.81286795;9.14184224;2023-11-18T13:15:26;8.36;82.39
216;HTU21D;70668;48.81286795;9.14184224;2023-11-18T13:17:59;8.42;83.13
216;HTU21D;70668;48.81286795;9.14184224;2023-11-18T13:20:28;8.35;81.17
216;HTU21D;70668;48.81286795;9.14184224;2023-11-18T13:22:59;8.22;82.30
216;HTU21D;70668;48.81286795;9.14184224;2023-11-18T13:25:34;8.48;83.12
216;HTU21D;70668;48.81286795;9.14184224;2023-11-18T13:28:05;8.52;84.19
216;HTU21D;70668;48.81286795;9.14184224;2023-11-18T13:30:38;8.48;83.36
216;HTU21D;70668;48.81286795;9.14184224;2023-11-18T13:33:06;8.44;84.96
216;HTU21D;70668;48.81286795;9.14184224;2023-11-18T13:35:37;8.39;84.98
216;HTU21D;70668;48.81286795;9.14184224;2023-11-18T13:38:06;8.30;85.69
216;HTU21D;70668;48.81286795;9.14184224;2023-11-18T13:40:44;8.38;85.99
216;HTU21D;70668;48.81286795;9.14184224;2023-11-18T13:43:13;8.38;86.18
216;HTU21D;70668;48.81286795;9.14184224;2023-11-18T13:45:51;8.29;84.33
216;HTU21D;70668;48.81286795;9.14184224;2023-11-18T13:48:22;8.29;85.42
216;HTU21D;70668;48.81286795;9.14184224;2023-11-18T13:50:51;8.29;85.77
216;HTU21D;70668;48.81286795;9.14184224;2023-11-18T13:53:20;8.41;85.61
216;HTU21D;70668;48.81286795;9.14184224;2023-11-18T13:55:49;8.33;85.70
216;HTU21D;70668;48.81286795;9.14184224;2023-11-18T13:58:17;8.28;86.90
216;HTU21D;70668;48.81286795;9.14184224;2023-11-18T14:00:49;8.46;86.98
216;HTU21D;70668;48.81286795;9.14184224;2023-11-18T14:03:18;8.44;87.00
216;HTU21D;70668;48.81286795;9.14184224;2023-11-18T14:05:51;8.46;87.09
216;HTU21D;70668;48.81286795;9.14184224;2023-11-18T14:08:21;8.13;86.22